Dades meteomassalio
Diari Summary for Febrer 22, 2017 Units:  Metric    English   Both
« Previous Day
Next Day »
Diari Semanal Mensual Anual Personalitzat
  Maxima: Minima: Mijana:
Temperatura: 17.3 °C 1.2 °C 8.4 °C
Rosada: 7.1 °C 0.2 °C 4 °C
Humitat: 94 % 48 % 77 %
Velocitat del vent: 13.0 km/h 0.0 km/h 1.5 km/h
Racha vent: 13.0 km/h - -
Vent:- - ENE
Pressio: 1026.3 hPa 1020.5 hPa -
Pluja: 0.3 mm    
Historical Graphs
 
 
Tabular Data for Febrer 22, 2017
Time Temperature Dew Point Pressure Wind Wind Speed Wind Gust Humidity Rainfall Rate (Hourly) solar Conditions
00:04 3.4 °C 1.9 °C 1026.0 hPa Calm     90 % 0.0 mm 0.0 W/m2 RA
00:09 3.4 °C 1.9 °C 1026.0 hPa Calm     90 % 0.0 mm 0.0 W/m2 CLR
00:14 3.3 °C 1.8 °C 1026.3 hPa Calm     90 % 0.0 mm 0.0 W/m2 CLR
00:19 3.1 °C 1.4 °C 1026.3 hPa Calm     89 % 0.0 mm 0.0 W/m2 CLR
00:24 3.0 °C 1.5 °C 1026.3 hPa Calm     90 % 0.0 mm 0.0 W/m2 CLR
00:29 3.0 °C 1.5 °C 1026.3 hPa Calm     90 % 0.0 mm 0.0 W/m2 CLR
00:34 3.0 °C 1.7 °C 1026.3 hPa Calm     91 % 0.0 mm 0.0 W/m2 CLR
00:39 3.1 °C 1.7 °C 1026.3 hPa Calm     91 % 0.0 mm 0.0 W/m2 CLR
00:44 2.9 °C 1.4 °C 1026.3 hPa Calm     90 % 0.0 mm 0.0 W/m2 CLR
00:49 2.9 °C 1.6 °C 1026.3 hPa Calm     91 % 0.0 mm 0.0 W/m2 CLR
00:54 2.9 °C 1.6 °C 1026.0 hPa SSW 3.7 km/h   91 % 0.0 mm 0.0 W/m2 CLR
00:59 2.9 °C 1.6 °C 1026.0 hPa Calm     91 % 0.0 mm 0.0 W/m2 CLR
01:04 2.9 °C 1.4 °C 1026.0 hPa Calm     90 % 0.0 mm 0.0 W/m2 CLR
01:09 2.7 °C 1.2 °C 1026.0 hPa Calm     90 % 0.0 mm 0.0 W/m2 CLR
01:14 2.6 °C 1.1 °C 1026.0 hPa Calm     90 % 0.0 mm 0.0 W/m2 CLR
01:19 2.4 °C 1.1 °C 1026.0 hPa Calm     91 % 0.0 mm 0.0 W/m2 CLR
01:24 2.4 °C 1.1 °C 1026.0 hPa Calm     91 % 0.0 mm 0.0 W/m2 CLR
01:29 2.3 °C 1.0 °C 1026.0 hPa Calm     91 % 0.0 mm 0.0 W/m2 CLR
01:34 2.3 °C 1.0 °C 1026.0 hPa Calm     91 % 0.0 mm 0.0 W/m2 CLR
01:39 2.5 °C 1.3 °C 1026.0 hPa SW 1.9 km/h 1.9 km/h 92 % 0.0 mm 0.0 W/m2 CLR
01:44 2.6 °C 1.4 °C 1026.0 hPa Calm     92 % 0.0 mm 0.0 W/m2 CLR
01:49 2.4 °C 1.1 °C 1026.0 hPa Calm     91 % 0.0 mm 0.0 W/m2 CLR
01:54 2.3 °C 1.0 °C 1026.0 hPa Calm     91 % 0.0 mm 0.0 W/m2 CLR
01:59 2.3 °C 0.9 °C 1026.0 hPa Calm     91 % 0.0 mm 0.0 W/m2 CLR
02:04 2.1 °C 0.8 °C 1026.3 hPa Calm     91 % 0.0 mm 0.0 W/m2 CLR
02:09 2.0 °C 0.8 °C 1026.3 hPa Calm     92 % 0.0 mm 0.0 W/m2 CLR
02:14 2.0 °C 0.8 °C 1026.3 hPa Calm     92 % 0.0 mm 0.0 W/m2 CLR
02:19 1.9 °C 0.6 °C 1026.0 hPa Calm     91 % 0.0 mm 0.0 W/m2 CLR
02:24 1.9 °C 0.6 °C 1026.0 hPa Calm     91 % 0.0 mm 0.0 W/m2 CLR
02:29 1.9 °C 0.7 °C 1026.0 hPa Calm     92 % 0.0 mm 0.0 W/m2 CLR
02:34 1.9 °C 0.7 °C 1026.0 hPa Calm     92 % 0.0 mm 0.0 W/m2 CLR
02:39 1.9 °C 0.7 °C 1026.0 hPa Calm     92 % 0.0 mm 0.0 W/m2 CLR
02:44 1.9 °C 0.8 °C 1026.0 hPa Calm     92 % 0.0 mm 0.0 W/m2 CLR
02:49 2.0 °C 0.8 °C 1026.0 hPa Calm     92 % 0.0 mm 0.0 W/m2 CLR
02:54 2.2 °C 1.1 °C 1026.0 hPa SW 3.7 km/h   92 % 0.0 mm 0.0 W/m2 CLR
02:59 2.3 °C 1.1 °C 1026.0 hPa Calm     92 % 0.0 mm 0.0 W/m2 CLR
03:04 2.1 °C 0.9 °C 1026.0 hPa Calm     92 % 0.0 mm 0.0 W/m2 CLR
03:09 1.9 °C 0.7 °C 1025.6 hPa Calm     92 % 0.0 mm 0.0 W/m2 CLR
03:14 1.8 °C 0.7 °C 1025.6 hPa Calm     92 % 0.0 mm 0.0 W/m2 CLR
03:19 1.8 °C 0.7 °C 1025.6 hPa Calm     92 % 0.0 mm 0.0 W/m2 CLR
03:24 1.8 °C 0.6 °C 1025.6 hPa Calm     92 % 0.0 mm 0.0 W/m2 CLR
03:29 1.8 °C 0.7 °C 1025.6 hPa Calm     92 % 0.0 mm 0.0 W/m2 CLR
03:34 1.7 °C 0.6 °C 1025.6 hPa Calm     92 % 0.0 mm 0.0 W/m2 CLR
03:39 1.6 °C 0.4 °C 1025.6 hPa Calm     92 % 0.0 mm 0.0 W/m2 CLR
03:44 1.4 °C 0.3 °C 1025.6 hPa Calm     92 % 0.0 mm 0.0 W/m2 CLR
03:49 1.5 °C 0.3 °C 1025.6 hPa Calm     92 % 0.0 mm 0.0 W/m2 CLR
03:54 1.6 °C 0.6 °C 1025.6 hPa Calm     93 % 0.0 mm 0.0 W/m2 CLR
03:59 1.7 °C 0.7 °C 1025.6 hPa Calm     93 % 0.0 mm 0.0 W/m2 CLR
04:04 1.6 °C 0.4 °C 1025.6 hPa Calm     92 % 0.0 mm 0.0 W/m2 CLR
04:10 1.6 °C 0.6 °C 1025.3 hPa Calm     93 % 0.0 mm 0.0 W/m2 CLR
04:15 1.7 °C 0.7 °C 1025.6 hPa WSW 3.7 km/h 3.7 km/h 93 % 0.0 mm 0.0 W/m2 CLR
04:20 1.9 °C 0.9 °C 1025.3 hPa Calm     93 % 0.0 mm 0.0 W/m2 CLR
04:25 1.8 °C 0.8 °C 1025.3 hPa Calm     93 % 0.0 mm 0.0 W/m2 CLR
04:30 1.7 °C 0.6 °C 1025.3 hPa Calm     92 % 0.0 mm 0.0 W/m2 CLR
04:35 1.6 °C 0.4 °C 1025.3 hPa Calm     92 % 0.0 mm 0.0 W/m2 CLR
04:40 1.4 °C 0.3 °C 1025.3 hPa Calm     92 % 0.0 mm 0.0 W/m2 CLR
04:45 1.3 °C 0.2 °C 1025.6 hPa Calm     92 % 0.0 mm 0.0 W/m2 CLR
04:50 1.5 °C 0.5 °C 1025.3 hPa WSW 5.6 km/h 5.6 km/h 93 % 0.0 mm 0.0 W/m2 CLR
04:55 1.8 °C 0.8 °C 1025.6 hPa SW 5.6 km/h 5.6 km/h 93 % 0.0 mm 0.0 W/m2 CLR
05:00 1.8 °C 0.8 °C 1025.6 hPa Calm     93 % 0.0 mm 0.0 W/m2 CLR
05:05 1.8 °C 0.8 °C 1025.6 hPa Calm     93 % 0.0 mm 0.0 W/m2 CLR
05:10 1.8 °C 0.8 °C 1025.6 hPa Calm     93 % 0.0 mm 0.0 W/m2 CLR
05:15 1.6 °C 0.4 °C 1025.6 hPa Calm     92 % 0.0 mm 0.0 W/m2 CLR
05:20 1.5 °C 0.3 °C 1025.6 hPa Calm     92 % 0.0 mm 0.0 W/m2 CLR
05:25 1.4 °C 0.3 °C 1025.6 hPa Calm     92 % 0.0 mm 0.0 W/m2 CLR
05:30 1.4 °C 0.4 °C 1025.6 hPa Calm     93 % 0.0 mm 0.0 W/m2 CLR
05:35 1.4 °C 0.4 °C 1025.6 hPa Calm     93 % 0.3 mm 0.0 W/m2 RA
05:40 1.4 °C 0.4 °C 1025.6 hPa Calm     93 % 0.3 mm 0.0 W/m2
05:45 1.4 °C 0.4 °C 1025.6 hPa Calm     93 % 0.3 mm 0.0 W/m2 CLR
05:50 1.4 °C 0.4 °C 1025.6 hPa Calm     93 % 0.3 mm 0.0 W/m2 CLR
05:55 1.4 °C 0.4 °C 1025.6 hPa Calm     93 % 0.3 mm 0.0 W/m2 CLR
06:00 1.5 °C 0.5 °C 1025.6 hPa Calm     93 % 0.3 mm 0.0 W/m2 CLR
06:05 1.4 °C 0.4 °C 1025.6 hPa Calm     93 % 0.3 mm 0.0 W/m2 CLR
06:10 1.4 °C 0.4 °C 1025.6 hPa Calm     93 % 0.3 mm 0.0 W/m2 CLR
06:15 1.4 °C 0.4 °C 1025.6 hPa Calm     93 % 0.3 mm 0.0 W/m2 CLR
06:20 1.3 °C 0.3 °C 1025.6 hPa Calm     93 % 0.3 mm 0.0 W/m2 CLR
06:25 1.3 °C 0.3 °C 1025.6 hPa Calm     93 % 0.3 mm 0.0 W/m2 CLR
06:30 1.2 °C 0.2 °C 1025.6 hPa Calm     93 % 0.3 mm 0.0 W/m2 CLR
06:35 1.3 °C 0.3 °C 1025.6 hPa Calm     93 % 0.0 mm 0.0 W/m2 CLR
06:40 1.4 °C 0.4 °C 1025.6 hPa Calm     93 % 0.0 mm 0.0 W/m2 CLR
06:45 1.4 °C 0.4 °C 1025.6 hPa Calm     93 % 0.0 mm 0.0 W/m2 CLR
06:50 1.4 °C 0.4 °C 1025.3 hPa Calm     93 % 0.0 mm 0.0 W/m2 CLR
06:55 1.3 °C 0.3 °C 1025.6 hPa Calm     93 % 0.0 mm 0.0 W/m2 CLR
07:00 1.3 °C 0.3 °C 1025.6 hPa Calm     93 % 0.0 mm 0.0 W/m2 CLR
07:05 1.4 °C 0.4 °C 1025.6 hPa Calm     93 % 0.0 mm 0.0 W/m2 CLR
07:10 1.6 °C 0.6 °C 1025.6 hPa Calm     93 % 0.0 mm 0.0 W/m2 CLR
07:15 1.6 °C 0.6 °C 1025.6 hPa Calm     93 % 0.0 mm 0.0 W/m2 CLR
07:20 1.5 °C 0.5 °C 1025.6 hPa Calm     93 % 0.0 mm 0.0 W/m2 CLR
07:25 1.4 °C 0.4 °C 1025.6 hPa Calm     93 % 0.0 mm 0.0 W/m2 CLR
07:30 1.4 °C 0.4 °C 1025.6 hPa Calm     93 % 0.0 mm 0.0 W/m2 CLR
07:35 1.3 °C 0.3 °C 1026.0 hPa Calm     93 % 0.0 mm 0.0 W/m2 OVC
07:40 1.3 °C 0.3 °C 1026.0 hPa Calm     93 % 0.0 mm 0.0 W/m2 OVC
07:45 1.3 °C 0.3 °C 1026.0 hPa Calm     93 % 0.0 mm 0.0 W/m2 OVC
07:50 1.3 °C 0.3 °C 1026.0 hPa Calm     93 % 0.0 mm 7.0 W/m2 OVC
07:55 1.3 °C 0.3 °C 1026.0 hPa Calm     93 % 0.0 mm 11.0 W/m2 BKN
08:00 1.4 °C 0.4 °C 1026.0 hPa Calm     93 % 0.0 mm 14.0 W/m2 BKN
08:05 1.5 °C 0.5 °C 1026.0 hPa Calm     93 % 0.0 mm 19.0 W/m2 BKN
08:10 1.4 °C 0.4 °C 1026.0 hPa Calm     93 % 0.0 mm 21.0 W/m2 BKN
08:15 1.6 °C 0.6 °C 1026.0 hPa Calm     93 % 0.0 mm 25.0 W/m2 BKN
08:20 1.7 °C 0.7 °C 1026.0 hPa Calm     93 % 0.0 mm 30.0 W/m2 BKN
08:25 1.7 °C 0.7 °C 1026.0 hPa Calm     93 % 0.0 mm 35.0 W/m2 BKN
08:30 1.8 °C 0.8 °C 1026.0 hPa Calm     93 % 0.0 mm 49.0 W/m2 SCT
08:35 1.9 °C 0.9 °C 1026.0 hPa Calm     93 % 0.0 mm 63.0 W/m2 SCT
08:40 2.1 °C 1.1 °C 1026.0 hPa Calm     93 % 0.0 mm 74.0 W/m2 FEW
08:45 2.1 °C 1.1 °C 1026.0 hPa Calm     93 % 0.0 mm 86.0 W/m2 FEW
08:50 2.4 °C 1.5 °C 1026.3 hPa Calm     94 % 0.0 mm 105.0 W/m2 FEW
08:55 2.6 °C 1.7 °C 1026.3 hPa Calm     94 % 0.0 mm 128.0 W/m2 CLR
09:00 2.9 °C 2.0 °C 1026.0 hPa Calm     94 % 0.0 mm 142.0 W/m2 CLR
09:05 3.3 °C 2.3 °C 1026.0 hPa Calm     93 % 0.0 mm 118.0 W/m2 CLR
09:10 3.5 °C 2.5 °C 1026.0 hPa Calm     93 % 0.0 mm 176.0 W/m2 CLR
09:15 4.0 °C 3.1 °C 1026.0 hPa Calm     94 % 0.0 mm 197.0 W/m2 CLR
09:20 4.4 °C 3.4 °C 1026.0 hPa Calm     93 % 0.0 mm 220.0 W/m2 CLR
09:25 4.9 °C 3.8 °C 1026.0 hPa Calm     93 % 0.0 mm 236.0 W/m2 CLR
09:30 5.4 °C 4.4 °C 1026.0 hPa Calm     93 % 0.0 mm 253.0 W/m2 CLR
09:35 5.9 °C 4.6 °C 1026.0 hPa Calm     91 % 0.0 mm 262.0 W/m2 CLR
09:40 6.3 °C 4.8 °C 1026.0 hPa Calm     90 % 0.0 mm 276.0 W/m2 CLR
09:41 6.4 °C 4.9 °C 1026.0 hPa Calm     90 % 0.0 mm 276.0 W/m2 CLR
09:46 6.9 °C 5.1 °C 1026.0 hPa Calm     88 % 0.0 mm 287.0 W/m2 CLR
09:51 7.1 °C 4.8 °C 1025.6 hPa Calm     85 % 0.0 mm 301.0 W/m2 CLR
09:56 7.4 °C 4.8 °C 1025.6 hPa Calm     84 % 0.0 mm 309.0 W/m2 CLR
10:01 7.7 °C 5.0 °C 1025.6 hPa Calm     83 % 0.0 mm 323.0 W/m2 CLR
10:06 8.1 °C 4.8 °C 1025.6 hPa Calm     80 % 0.0 mm 313.0 W/m2 CLR
10:11 8.4 °C 4.9 °C 1025.3 hPa Calm     79 % 0.0 mm 350.0 W/m2 CLR
10:16 8.8 °C 5.2 °C 1025.3 hPa Calm     78 % 0.0 mm 369.0 W/m2 CLR
10:21 9.3 °C 5.5 °C 1025.3 hPa Calm     77 % 0.0 mm 385.0 W/m2 CLR
10:26 9.8 °C 5.4 °C 1025.3 hPa Calm     74 % 0.0 mm 387.0 W/m2 CLR
10:31 10.1 °C 5.3 °C 1025.3 hPa Calm     72 % 0.0 mm 403.0 W/m2 CLR
10:36 10.4 °C 5.3 °C 1025.3 hPa Calm     71 % 0.0 mm 413.0 W/m2 CLR
10:41 10.8 °C 5.7 °C 1025.3 hPa Calm     71 % 0.0 mm 424.0 W/m2 CLR
10:46 11.2 °C 5.7 °C 1025.3 hPa Calm     69 % 0.0 mm 434.0 W/m2 CLR
10:51 11.7 °C 5.5 °C 1025.3 hPa Calm     66 % 0.0 mm 457.0 W/m2 CLR
10:56 12.2 °C 5.8 °C 1025.3 hPa Calm     65 % 0.0 mm 461.0 W/m2 CLR
11:01 12.4 °C 5.8 °C 1024.9 hPa Calm     64 % 0.0 mm 464.0 W/m2 CLR
11:06 12.4 °C 5.6 °C 1024.9 hPa Calm     63 % 0.0 mm 452.0 W/m2 CLR
11:11 12.5 °C 5.9 °C 1024.9 hPa Calm     64 % 0.0 mm 476.0 W/m2 CLR
11:16 12.7 °C 6.1 °C 1024.9 hPa ENE 4.8 km/h 4.8 km/h 64 % 0.0 mm 466.0 W/m2 CLR
11:21 12.8 °C 6.1 °C 1024.9 hPa ENE 9.3 km/h 9.3 km/h 64 % 0.0 mm 496.0 W/m2 CLR
11:26 12.7 °C 6.3 °C 1024.9 hPa NE 9.3 km/h 9.3 km/h 65 % 0.0 mm 496.0 W/m2 CLR
11:31 12.7 °C 6.3 °C 1024.9 hPa NE 11.3 km/h 11.3 km/h 65 % 0.0 mm 512.0 W/m2 CLR
11:36 12.6 °C 6.4 °C 1024.9 hPa NE 13.0 km/h 13.0 km/h 66 % 0.0 mm 482.0 W/m2 CLR
11:41 12.5 °C 6.3 °C 1024.9 hPa NE 11.1 km/h 11.1 km/h 66 % 0.0 mm 420.0 W/m2 CLR
11:46 12.4 °C 6.2 °C 1024.9 hPa ENE 13.0 km/h 13.0 km/h 66 % 0.0 mm 431.0 W/m2 CLR
11:51 12.3 °C 6.4 °C 1024.9 hPa East 9.7 km/h 9.7 km/h 67 % 0.0 mm 454.0 W/m2 CLR
11:56 12.3 °C 6.3 °C 1024.9 hPa East 9.3 km/h 9.3 km/h 67 % 0.0 mm 450.0 W/m2 CLR
12:01 12.3 °C 6.3 °C 1024.9 hPa ENE 11.3 km/h 11.3 km/h 67 % 0.0 mm 411.0 W/m2 CLR
12:06 12.2 °C 6.3 °C 1024.9 hPa NE 9.3 km/h 9.3 km/h 67 % 0.0 mm 476.0 W/m2 CLR
12:11 12.4 °C 6.4 °C 1024.9 hPa NE 11.3 km/h 11.3 km/h 67 % 0.0 mm 531.0 W/m2 CLR
12:16 12.6 °C 6.4 °C 1024.9 hPa ENE 8.0 km/h 8.0 km/h 66 % 0.0 mm 548.0 W/m2 CLR
12:21 12.8 °C 6.3 °C 1024.6 hPa ENE 7.4 km/h 7.4 km/h 65 % 0.0 mm 596.0 W/m2 CLR
12:26 13.0 °C 6.6 °C 1024.6 hPa ENE 7.4 km/h 7.4 km/h 65 % 0.0 mm 580.0 W/m2 CLR
12:31 13.2 °C 6.6 °C 1024.6 hPa ENE 9.3 km/h 9.3 km/h 64 % 0.0 mm 538.0 W/m2 CLR
12:36 13.4 °C 6.7 °C 1024.6 hPa East 8.0 km/h 8.0 km/h 64 % 0.0 mm 559.0 W/m2 CLR
12:41 13.4 °C 6.3 °C 1024.6 hPa East 5.6 km/h 5.6 km/h 62 % 0.0 mm 548.0 W/m2 CLR
12:46 13.6 °C 6.4 °C 1024.6 hPa East 9.3 km/h 9.3 km/h 62 % 0.0 mm 515.0 W/m2 CLR
12:51 13.7 °C 6.5 °C 1024.3 hPa ENE 5.6 km/h 5.6 km/h 62 % 0.0 mm 631.0 W/m2 CLR
12:56 13.8 °C 6.4 °C 1024.3 hPa ENE 7.4 km/h 7.4 km/h 61 % 0.0 mm 638.0 W/m2 CLR
13:01 14.1 °C 6.7 °C 1024.3 hPa ENE 3.7 km/h 3.7 km/h 61 % 0.0 mm 629.0 W/m2 CLR
13:06 14.3 °C 6.6 °C 1024.3 hPa Calm     60 % 0.0 mm 629.0 W/m2 CLR
13:11 14.5 °C 6.6 °C 1023.9 hPa NE 5.6 km/h   59 % 0.0 mm 610.0 W/m2 CLR
13:12 14.5 °C 6.8 °C 1023.9 hPa NE 5.6 km/h   60 % 0.0 mm 610.0 W/m2 CLR
13:17 14.7 °C 6.6 °C 1023.9 hPa Calm     58 % 0.0 mm 613.0 W/m2 CLR
13:22 14.8 °C 6.4 °C 1023.9 hPa Calm     57 % 0.0 mm 615.0 W/m2 CLR
13:27 15.1 °C 6.7 °C 1023.9 hPa Calm     57 % 0.0 mm 599.0 W/m2 CLR
13:32 15.4 °C 6.4 °C 1023.6 hPa Calm     55 % 0.0 mm 582.0 W/m2 CLR
13:37 15.8 °C 6.5 °C 1023.6 hPa Calm     54 % 0.0 mm 606.0 W/m2 CLR
13:42 15.9 °C 6.1 °C 1023.2 hPa Calm     52 % 0.0 mm 547.0 W/m2 CLR
13:47 15.9 °C 6.3 °C 1023.2 hPa Calm     53 % 0.0 mm 603.0 W/m2 CLR
13:52 16.3 °C 6.7 °C 1023.2 hPa Calm     53 % 0.0 mm 555.0 W/m2 CLR
13:57 16.8 °C 6.3 °C 1023.2 hPa ENE 3.7 km/h 3.7 km/h 50 % 0.0 mm 605.0 W/m2 CLR
14:02 16.6 °C 5.8 °C 1022.9 hPa Calm     49 % 0.0 mm 591.0 W/m2 CLR
14:07 16.6 °C 6.1 °C 1022.9 hPa NE 1.9 km/h   50 % 0.0 mm 580.0 W/m2 CLR
14:12 16.5 °C 6.1 °C 1022.6 hPa Calm     50 % 0.0 mm 513.0 W/m2 CLR
14:17 16.5 °C 6.1 °C 1022.6 hPa Calm     50 % 0.0 mm 520.0 W/m2 CLR
14:22 16.7 °C 6.5 °C 1022.6 hPa Calm     51 % 0.0 mm 559.0 W/m2 CLR
14:27 16.9 °C 6.2 °C 1022.6 hPa NNE 3.7 km/h 3.7 km/h 49 % 0.0 mm 529.0 W/m2 CLR
14:32 17.0 °C 5.9 °C 1022.6 hPa Calm     48 % 0.0 mm 494.0 W/m2 CLR
14:37 16.9 °C 6.1 °C 1022.2 hPa Calm     49 % 0.0 mm 513.0 W/m2 CLR
14:42 17.1 °C 5.9 °C 1022.2 hPa Calm     48 % 0.0 mm 517.0 W/m2 CLR
14:47 17.3 °C 6.2 °C 1022.2 hPa NNE 3.7 km/h 3.7 km/h 48 % 0.0 mm 401.0 W/m2 CLR
14:52 17.2 °C 6.3 °C 1021.9 hPa ENE 3.7 km/h 3.7 km/h 49 % 0.0 mm 464.0 W/m2 CLR
14:57 17.1 °C 6.6 °C 1021.9 hPa ENE 3.7 km/h 3.7 km/h 50 % 0.0 mm 471.0 W/m2 CLR
15:02 17.0 °C 6.5 °C 1021.9 hPa Calm     50 % 0.0 mm 517.0 W/m2 CLR
15:07 17.0 °C 7.1 °C 1021.9 hPa ENE 5.6 km/h 5.6 km/h 52 % 0.0 mm 515.0 W/m2 CLR
15:12 17.1 °C 6.6 °C 1021.9 hPa NNE 3.7 km/h   50 % 0.0 mm 464.0 W/m2 CLR
15:17 17.1 °C 6.9 °C 1021.6 hPa NNE 5.6 km/h 5.6 km/h 51 % 0.0 mm 459.0 W/m2 CLR
15:22 17.2 °C 6.9 °C 1021.6 hPa ENE 11.1 km/h 11.1 km/h 51 % 0.0 mm 457.0 W/m2 CLR
15:27 17.2 °C 6.9 °C 1021.6 hPa ENE 5.6 km/h 5.6 km/h 51 % 0.0 mm 452.0 W/m2 CLR
15:32 17.1 °C 6.9 °C 1021.6 hPa NE 8.0 km/h 8.0 km/h 51 % 0.0 mm 438.0 W/m2 CLR
15:37 17.1 °C 6.9 °C 1021.6 hPa NE 7.4 km/h 7.4 km/h 51 % 0.0 mm 429.0 W/m2 CLR
15:42 17.2 °C 6.7 °C 1021.6 hPa NNE 5.6 km/h 5.6 km/h 50 % 0.0 mm 415.0 W/m2 CLR
15:47 17.1 °C 6.3 °C 1021.2 hPa NNE 7.4 km/h 7.4 km/h 49 % 0.0 mm 401.0 W/m2 CLR
15:52 17.1 °C 6.8 °C 1021.2 hPa North 9.3 km/h 9.3 km/h 51 % 0.0 mm 385.0 W/m2 CLR
15:57 17.1 °C 6.9 °C 1021.2 hPa NE 11.3 km/h 11.3 km/h 51 % 0.0 mm 376.0 W/m2 CLR
16:02 17.0 °C 6.8 °C 1021.2 hPa NNE 11.1 km/h 11.1 km/h 51 % 0.0 mm 360.0 W/m2 CLR
16:07 17.0 °C 7.1 °C 1021.2 hPa NE 9.3 km/h 9.3 km/h 52 % 0.0 mm 330.0 W/m2 CLR
16:12 17.1 °C 6.8 °C 1021.2 hPa Calm   0.2 km/h 51 % 0.0 mm 323.0 W/m2 CLR
16:17 17.1 °C 7.1 °C 1021.2 hPa NNE 7.4 km/h 7.4 km/h 52 % 0.0 mm 294.0 W/m2 CLR
16:22 17.0 °C 6.8 °C 1021.2 hPa NE 7.4 km/h 7.4 km/h 51 % 0.0 mm 301.0 W/m2 CLR
16:27 17.0 °C 6.8 °C 1020.9 hPa North 3.7 km/h 3.7 km/h 51 % 0.0 mm 279.0 W/m2 CLR
16:32 16.9 °C 6.7 °C 1020.9 hPa NNE 9.3 km/h 9.3 km/h 51 % 0.0 mm 271.0 W/m2 CLR
16:37 16.9 °C 6.4 °C 1020.9 hPa NNE 11.1 km/h 11.1 km/h 50 % 0.0 mm 232.0 W/m2 CLR
16:42 16.9 °C 6.4 °C 1020.9 hPa NNE 7.4 km/h 7.4 km/h 50 % 0.0 mm 218.0 W/m2 CLR
16:47 16.8 °C 6.3 °C 1020.9 hPa Calm     50 % 0.0 mm 209.0 W/m2 CLR
16:52 16.9 °C 6.4 °C 1020.9 hPa NNE 5.6 km/h 5.6 km/h 50 % 0.0 mm 202.0 W/m2 CLR
16:57 16.9 °C 6.4 °C 1020.9 hPa NNE 5.6 km/h 5.6 km/h 50 % 0.0 mm 199.0 W/m2 CLR
17:02 16.9 °C 6.4 °C 1020.9 hPa NE 5.6 km/h 5.6 km/h 50 % 0.0 mm 190.0 W/m2 CLR
17:07 16.9 °C 6.7 °C 1020.5 hPa NNE 5.6 km/h 5.6 km/h 51 % 0.0 mm 176.0 W/m2 CLR
17:12 16.8 °C 6.3 °C 1020.5 hPa NE 7.4 km/h 7.4 km/h 50 % 0.0 mm 165.0 W/m2 CLR
17:17 16.7 °C 6.2 °C 1020.5 hPa Calm     50 % 0.0 mm 158.0 W/m2 CLR
17:22 16.7 °C 6.5 °C 1020.5 hPa Calm     51 % 0.0 mm 146.0 W/m2 CLR
17:27 16.7 °C 6.8 °C 1020.5 hPa Calm     52 % 0.0 mm 132.0 W/m2 CLR
17:28 16.7 °C 6.8 °C 1020.5 hPa Calm     52 % 0.0 mm 128.0 W/m2 CLR
17:33 16.7 °C 6.5 °C 1020.5 hPa Calm     51 % 0.0 mm 114.0 W/m2 CLR
17:38 16.6 °C 6.7 °C 1020.5 hPa Calm     52 % 0.0 mm 102.0 W/m2 CLR
17:43 16.5 °C 6.6 °C 1020.5 hPa Calm     52 % 0.0 mm 93.0 W/m2 CLR
17:48 16.4 °C 6.8 °C 1020.5 hPa Calm     53 % 0.0 mm 86.0 W/m2 CLR
17:53 16.4 °C 6.5 °C 1020.5 hPa NNE 1.6 km/h 1.6 km/h 52 % 0.0 mm 77.0 W/m2 FEW
17:58 16.3 °C 6.7 °C 1020.5 hPa Calm     53 % 0.0 mm 67.0 W/m2 FEW
18:03 16.1 °C 7.1 °C 1020.5 hPa Calm     55 % 0.0 mm 56.0 W/m2 SCT
18:08 15.9 °C 6.6 °C 1020.5 hPa Calm     54 % 0.0 mm 46.0 W/m2 SCT
18:13 15.7 °C 6.4 °C 1020.5 hPa Calm     54 % 0.0 mm 39.0 W/m2 BKN
18:18 15.6 °C 6.3 °C 1020.5 hPa Calm     54 % 0.0 mm 32.0 W/m2 BKN
18:23 15.4 °C 6.4 °C 1020.5 hPa Calm     55 % 0.0 mm 25.0 W/m2 BKN
18:28 15.3 °C 6.3 °C 1020.5 hPa Calm     55 % 0.0 mm 18.0 W/m2 BKN
18:33 15.2 °C 6.5 °C 1020.5 hPa Calm     56 % 0.0 mm 12.0 W/m2 BKN
18:38 15.1 °C 6.4 °C 1020.5 hPa Calm     56 % 0.0 mm 9.0 W/m2 BKN
18:43 14.9 °C 6.2 °C 1020.5 hPa Calm     56 % 0.0 mm 5.0 W/m2 OVC
18:48 14.8 °C 6.3 °C 1020.5 hPa Calm     57 % 0.0 mm 0.0 W/m2 OVC
18:53 14.6 °C 6.4 °C 1020.5 hPa Calm     58 % 0.0 mm 0.0 W/m2 CLR
18:58 14.4 °C 6.2 °C 1020.9 hPa Calm     58 % 0.0 mm 0.0 W/m2 CLR
19:03 14.2 °C 6.8 °C 1020.9 hPa Calm     61 % 0.0 mm 0.0 W/m2 CLR
19:08 13.9 °C 6.8 °C 1020.9 hPa Calm     62 % 0.0 mm 0.0 W/m2 CLR
19:13 13.6 °C 6.7 °C 1020.9 hPa Calm     63 % 0.0 mm 0.0 W/m2 CLR
19:18 13.2 °C 6.6 °C 1020.9 hPa Calm     64 % 0.0 mm 0.0 W/m2 CLR
19:23 12.9 °C 6.9 °C 1020.9 hPa Calm     67 % 0.0 mm 0.0 W/m2 CLR
19:28 12.4 °C 6.7 °C 1020.9 hPa Calm     68 % 0.0 mm 0.0 W/m2 CLR
19:33 12.1 °C 6.8 °C 1020.9 hPa Calm     70 % 0.0 mm 0.0 W/m2 CLR
19:38 11.8 °C 6.9 °C 1020.9 hPa Calm     72 % 0.0 mm 0.0 W/m2 CLR
19:43 11.4 °C 6.7 °C 1020.9 hPa Calm     73 % 0.0 mm 0.0 W/m2 CLR
19:48 11.1 °C 6.6 °C 1021.2 hPa Calm     74 % 0.0 mm 0.0 W/m2 CLR
19:53 10.9 °C 6.6 °C 1021.2 hPa Calm     75 % 0.0 mm 0.0 W/m2 CLR
19:58 10.7 °C 6.4 °C 1021.2 hPa Calm     75 % 0.0 mm 0.0 W/m2 CLR
20:03 10.3 °C 6.3 °C 1021.2 hPa Calm     76 % 0.0 mm 0.0 W/m2 CLR
20:08 10.0 °C 6.3 °C 1021.2 hPa Calm     78 % 0.0 mm 0.0 W/m2 CLR
20:13 9.8 °C 6.4 °C 1021.2 hPa Calm     79 % 0.0 mm 0.0 W/m2 CLR
20:19 9.7 °C 6.2 °C 1021.2 hPa Calm     79 % 0.0 mm 0.0 W/m2 CLR
20:23 9.6 °C 6.2 °C 1021.2 hPa Calm     79 % 0.0 mm 0.0 W/m2 CLR
20:28 9.5 °C 6.2 °C 1021.2 hPa Calm     80 % 0.0 mm 0.0 W/m2 CLR
20:33 9.3 °C 6.1 °C 1021.2 hPa Calm     80 % 0.0 mm 0.0 W/m2 CLR
20:34 9.3 °C 6.1 °C 1021.2 hPa Calm     80 % 0.0 mm 0.0 W/m2 CLR
20:39 9.2 °C 6.1 °C 1021.2 hPa Calm     81 % 0.0 mm 0.0 W/m2 CLR
20:44 9.0 °C 5.9 °C 1021.2 hPa Calm     81 % 0.0 mm 0.0 W/m2 CLR
20:49 8.9 °C 6.1 °C 1021.6 hPa Calm     82 % 0.0 mm 0.0 W/m2 CLR
20:54 8.8 °C 5.9 °C 1021.6 hPa Calm     82 % 0.0 mm 0.0 W/m2 CLR
20:59 8.8 °C 5.9 °C 1021.6 hPa Calm     82 % 0.0 mm 0.0 W/m2 CLR
21:04 8.6 °C 5.9 °C 1021.6 hPa Calm     83 % 0.0 mm 0.0 W/m2 CLR
21:09 8.5 °C 5.8 °C 1021.6 hPa Calm     83 % 0.0 mm 0.0 W/m2 CLR
21:14 8.4 °C 5.7 °C 1021.6 hPa Calm     83 % 0.0 mm 0.0 W/m2 CLR
21:19 8.3 °C 5.6 °C 1021.6 hPa Calm     83 % 0.0 mm 0.0 W/m2 CLR
21:24 8.3 °C 5.6 °C 1021.6 hPa Calm     83 % 0.0 mm 0.0 W/m2 CLR
21:29 8.1 °C 5.6 °C 1021.6 hPa Calm     84 % 0.0 mm 0.0 W/m2 CLR
21:34 8.0 °C 5.4 °C 1021.6 hPa Calm     84 % 0.0 mm 0.0 W/m2 CLR
21:39 7.8 °C 5.3 °C 1021.6 hPa Calm     84 % 0.0 mm 0.0 W/m2 CLR
21:44 7.7 °C 5.2 °C 1021.6 hPa Calm     84 % 0.0 mm 0.0 W/m2 CLR
21:49 7.7 °C 5.3 °C 1021.6 hPa SW 5.6 km/h 5.6 km/h 85 % 0.0 mm 0.0 W/m2 CLR
21:54 7.7 °C 5.3 °C 1021.6 hPa Calm     85 % 0.0 mm 0.0 W/m2 CLR
21:59 7.6 °C 5.2 °C 1021.6 hPa Calm     85 % 0.0 mm 0.0 W/m2 CLR
22:04 7.6 °C 5.2 °C 1021.6 hPa Calm     85 % 0.0 mm 0.0 W/m2 CLR
22:09 7.5 °C 5.2 °C 1021.6 hPa Calm     85 % 0.0 mm 0.0 W/m2 CLR
22:14 7.4 °C 5.1 °C 1021.6 hPa Calm     85 % 0.0 mm 0.0 W/m2 CLR
22:19 7.4 °C 5.1 °C 1021.6 hPa Calm     85 % 0.0 mm 0.0 W/m2 CLR
22:24 7.4 °C 5.1 °C 1021.6 hPa Calm     85 % 0.0 mm 0.0 W/m2 CLR
22:29 7.2 °C 4.9 °C 1021.6 hPa Calm     85 % 0.0 mm 0.0 W/m2 CLR
22:34 7.1 °C 4.9 °C 1021.6 hPa Calm     86 % 0.0 mm 0.0 W/m2 CLR
22:39 7.1 °C 4.9 °C 1021.6 hPa Calm     86 % 0.0 mm 0.0 W/m2 CLR
22:44 7.2 °C 5.0 °C 1021.6 hPa Calm     86 % 0.0 mm 0.0 W/m2 CLR
22:49 7.1 °C 4.9 °C 1021.6 hPa Calm     86 % 0.0 mm 0.0 W/m2 CLR
22:54 7.1 °C 4.9 °C 1021.6 hPa Calm     86 % 0.0 mm 0.0 W/m2 CLR
22:59 7.0 °C 4.8 °C 1021.6 hPa Calm     86 % 0.0 mm 0.0 W/m2 CLR
23:04 6.9 °C 4.8 °C 1021.6 hPa Calm     86 % 0.0 mm 0.0 W/m2 CLR
23:09 6.9 °C 4.9 °C 1021.6 hPa Calm     87 % 0.0 mm 0.0 W/m2 CLR
23:14 6.8 °C 4.8 °C 1021.6 hPa Calm     87 % 0.0 mm 0.0 W/m2 CLR
23:19 6.7 °C 4.7 °C 1021.2 hPa Calm     87 % 0.0 mm 0.0 W/m2 CLR
23:24 6.7 °C 4.7 °C 1021.2 hPa Calm     87 % 0.0 mm 0.0 W/m2 CLR
23:29 6.7 °C 4.8 °C 1021.2 hPa Calm     88 % 0.0 mm 0.0 W/m2 CLR
23:34 6.7 °C 4.7 °C 1021.2 hPa Calm     87 % 0.0 mm 0.0 W/m2 CLR
23:39 6.6 °C 4.6 °C 1021.2 hPa Calm     87 % 0.0 mm 0.0 W/m2 CLR
23:44 6.6 °C 4.6 °C 1021.6 hPa Calm     87 % 0.0 mm 0.0 W/m2 CLR
23:49 6.5 °C 4.5 °C 1021.2 hPa Calm     87 % 0.0 mm 0.0 W/m2 CLR
23:54 6.4 °C 4.6 °C 1021.2 hPa Calm     88 % 0.0 mm 0.0 W/m2 CLR
23:59 6.4 °C 4.6 °C 1021.2 hPa SW 3.7 km/h 3.7 km/h 88 % 0.0 mm 0.0 W/m2 CLR
Lo Temps de Massalio
Compliments of Weather Underground - 1.25 mb